Bay City, Oregon
Current Conditions -  °F | °C
As of 8:35 AM on Saturday 20 Dec 2014 (Local Time) from KTMK Reporting Station
Heavy Rain Heavy Rain  
Wind Chill: 55°   Ceiling: 1400
Heat Index: 55°   Visibility: 2.5mi
Dew Point: 55°   Wind: 13mph
Humidity: 100%   Direction: 210°SSW
Pressure: 29.64"   Gusts: 21mph
Location:  45.52°N, 123.89°W
Report Text: KTMK 201635Z AUTO 21011G18KT 2 1/2SM +RA OVC014 13/13 A2964 RMK AO2 P0025
Loading
Personal Weather Stations






























Interactive Weather Map New forecast layout! Learn more

10-Day Weather Forecast

Advertisements
Track Severe Weather on mobile